sensor_id;sensor_type;location;lat;lon;timestamp;P1;durP1;ratioP1;P2;durP2;ratioP2
1775;SDS011;885;42.626;23.200;2022-09-24T00:01:43;4.47;;;4.07;;
1775;SDS011;885;42.626;23.200;2022-09-24T00:04:11;3.77;;;3.50;;
1775;SDS011;885;42.626;23.200;2022-09-24T00:06:38;4.67;;;4.27;;
1775;SDS011;885;42.626;23.200;2022-09-24T00:09:06;4.17;;;3.63;;
1775;SDS011;885;42.626;23.200;2022-09-24T00:11:33;3.80;;;3.50;;
1775;SDS011;885;42.626;23.200;2022-09-24T00:14:00;3.77;;;3.47;;
1775;SDS011;885;42.626;23.200;2022-09-24T00:16:29;4.03;;;3.73;;
1775;SDS011;885;42.626;23.200;2022-09-24T00:18:58;3.60;;;3.40;;
1775;SDS011;885;42.626;23.200;2022-09-24T00:21:26;4.07;;;3.77;;
1775;SDS011;885;42.626;23.200;2022-09-24T00:23:54;5.17;;;4.10;;
1775;SDS011;885;42.626;23.200;2022-09-24T00:26:22;3.80;;;3.50;;
1775;SDS011;885;42.626;23.200;2022-09-24T00:29:06;4.33;;;3.93;;
1775;SDS011;885;42.626;23.200;2022-09-24T00:31:35;4.30;;;4.00;;
1775;SDS011;885;42.626;23.200;2022-09-24T00:34:02;3.73;;;3.43;;
1775;SDS011;885;42.626;23.200;2022-09-24T00:36:30;4.87;;;4.43;;
1775;SDS011;885;42.626;23.200;2022-09-24T00:38:57;4.20;;;3.80;;
1775;SDS011;885;42.626;23.200;2022-09-24T00:41:26;4.03;;;3.73;;
1775;SDS011;885;42.626;23.200;2022-09-24T00:43:54;3.97;;;3.57;;
1775;SDS011;885;42.626;23.200;2022-09-24T00:46:22;4.27;;;3.87;;
1775;SDS011;885;42.626;23.200;2022-09-24T00:48:56;4.40;;;4.07;;
1775;SDS011;885;42.626;23.200;2022-09-24T00:51:24;5.03;;;4.63;;
1775;SDS011;885;42.626;23.200;2022-09-24T00:53:55;4.57;;;4.17;;
1775;SDS011;885;42.626;23.200;2022-09-24T00:56:26;4.50;;;4.10;;
1775;SDS011;885;42.626;23.200;2022-09-24T00:58:55;5.93;;;4.70;;
1775;SDS011;885;42.626;23.200;2022-09-24T01:01:26;4.70;;;4.30;;
1775;SDS011;885;42.626;23.200;2022-09-24T01:03:55;4.00;;;3.70;;
1775;SDS011;885;42.626;23.200;2022-09-24T01:06:24;4.60;;;4.20;;
1775;SDS011;885;42.626;23.200;2022-09-24T01:08:51;4.50;;;4.10;;
1775;SDS011;885;42.626;23.200;2022-09-24T01:11:29;4.30;;;3.90;;
1775;SDS011;885;42.626;23.200;2022-09-24T01:14:10;5.03;;;4.20;;
1775;SDS011;885;42.626;23.200;2022-09-24T01:16:53;4.37;;;3.97;;
1775;SDS011;885;42.626;23.200;2022-09-24T01:19:38;5.30;;;4.90;;
1775;SDS011;885;42.626;23.200;2022-09-24T01:22:20;4.47;;;4.17;;
1775;SDS011;885;42.626;23.200;2022-09-24T01:24:58;4.20;;;3.90;;
1775;SDS011;885;42.626;23.200;2022-09-24T01:27:32;4.30;;;4.00;;
1775;SDS011;885;42.626;23.200;2022-09-24T01:30:12;4.90;;;4.50;;
1775;SDS011;885;42.626;23.200;2022-09-24T01:32:41;4.73;;;4.43;;
1775;SDS011;885;42.626;23.200;2022-09-24T01:35:14;4.97;;;4.57;;
1775;SDS011;885;42.626;23.200;2022-09-24T01:37:47;4.70;;;4.30;;
1775;SDS011;885;42.626;23.200;2022-09-24T01:40:17;4.63;;;4.30;;
1775;SDS011;885;42.626;23.200;2022-09-24T01:42:47;4.43;;;4.13;;
1775;SDS011;885;42.626;23.200;2022-09-24T01:45:17;5.50;;;5.00;;
1775;SDS011;885;42.626;23.200;2022-09-24T01:47:45;5.00;;;4.60;;
1775;SDS011;885;42.626;23.200;2022-09-24T01:50:13;5.37;;;4.47;;
1775;SDS011;885;42.626;23.200;2022-09-24T01:52:47;4.20;;;3.90;;
1775;SDS011;885;42.626;23.200;2022-09-24T01:55:19;4.83;;;4.43;;
1775;SDS011;885;42.626;23.200;2022-09-24T01:57:50;4.93;;;4.43;;
1775;SDS011;885;42.626;23.200;2022-09-24T02:00:23;4.50;;;4.10;;
1775;SDS011;885;42.626;23.200;2022-09-24T02:02:53;5.40;;;5.00;;
1775;SDS011;885;42.626;23.200;2022-09-24T02:05:25;5.27;;;4.20;;
1775;SDS011;885;42.626;23.200;2022-09-24T02:08:00;4.70;;;4.30;;
1775;SDS011;885;42.626;23.200;2022-09-24T02:10:33;6.30;;;5.70;;
1775;SDS011;885;42.626;23.200;2022-09-24T02:13:06;5.07;;;4.50;;
1775;SDS011;885;42.626;23.200;2022-09-24T02:15:40;4.87;;;4.47;;
1775;SDS011;885;42.626;23.200;2022-09-24T02:18:10;5.33;;;4.93;;
1775;SDS011;885;42.626;23.200;2022-09-24T02:20:42;5.17;;;4.77;;
1775;SDS011;885;42.626;23.200;2022-09-24T02:23:10;6.57;;;4.90;;
1775;SDS011;885;42.626;23.200;2022-09-24T02:25:40;5.23;;;4.83;;
1775;SDS011;885;42.626;23.200;2022-09-24T02:28:10;5.73;;;5.27;;
1775;SDS011;885;42.626;23.200;2022-09-24T02:30:40;5.00;;;4.60;;
1775;SDS011;885;42.626;23.200;2022-09-24T02:33:12;5.83;;;5.03;;
1775;SDS011;885;42.626;23.200;2022-09-24T02:35:58;5.93;;;5.30;;
1775;SDS011;885;42.626;23.200;2022-09-24T02:38:25;5.60;;;5.10;;
1775;SDS011;885;42.626;23.200;2022-09-24T02:40:51;6.13;;;5.60;;
1775;SDS011;885;42.626;23.200;2022-09-24T02:43:19;5.27;;;4.77;;
1775;SDS011;885;42.626;23.200;2022-09-24T02:45:48;5.50;;;5.00;;
1775;SDS011;885;42.626;23.200;2022-09-24T02:48:15;6.93;;;6.37;;
1775;SDS011;885;42.626;23.200;2022-09-24T02:50:41;5.20;;;4.80;;
1775;SDS011;885;42.626;23.200;2022-09-24T02:53:08;5.20;;;4.80;;
1775;SDS011;885;42.626;23.200;2022-09-24T02:55:35;5.27;;;4.80;;
1775;SDS011;885;42.626;23.200;2022-09-24T02:58:02;6.47;;;5.87;;
1775;SDS011;885;42.626;23.200;2022-09-24T03:00:29;5.37;;;4.87;;
1775;SDS011;885;42.626;23.200;2022-09-24T03:02:57;5.70;;;5.10;;
1775;SDS011;885;42.626;23.200;2022-09-24T03:05:23;5.30;;;4.80;;
1775;SDS011;885;42.626;23.200;2022-09-24T03:07:50;6.20;;;5.60;;
1775;SDS011;885;42.626;23.200;2022-09-24T03:10:17;6.23;;;4.97;;
1775;SDS011;885;42.626;23.200;2022-09-24T03:12:44;6.07;;;5.47;;
1775;SDS011;885;42.626;23.200;2022-09-24T03:15:10;5.33;;;4.83;;
1775;SDS011;885;42.626;23.200;2022-09-24T03:17:37;6.40;;;5.30;;
1775;SDS011;885;42.626;23.200;2022-09-24T03:20:06;6.43;;;5.83;;
1775;SDS011;885;42.626;23.200;2022-09-24T03:22:33;6.60;;;6.00;;
1775;SDS011;885;42.626;23.200;2022-09-24T03:25:00;5.27;;;4.77;;
1775;SDS011;885;42.626;23.200;2022-09-24T03:27:27;7.17;;;5.40;;
1775;SDS011;885;42.626;23.200;2022-09-24T03:29:54;5.10;;;4.70;;
1775;SDS011;885;42.626;23.200;2022-09-24T03:32:38;5.83;;;5.33;;
1775;SDS011;885;42.626;23.200;2022-09-24T03:35:07;4.97;;;4.50;;
1775;SDS011;885;42.626;23.200;2022-09-24T03:37:34;4.93;;;4.53;;
1775;SDS011;885;42.626;23.200;2022-09-24T03:40:01;5.20;;;4.73;;
1775;SDS011;885;42.626;23.200;2022-09-24T03:42:29;5.60;;;5.10;;
1775;SDS011;885;42.626;23.200;2022-09-24T03:44:56;5.77;;;5.27;;
1775;SDS011;885;42.626;23.200;2022-09-24T03:47:23;5.23;;;4.83;;
1775;SDS011;885;42.626;23.200;2022-09-24T03:49:50;5.27;;;4.80;;
1775;SDS011;885;42.626;23.200;2022-09-24T03:52:18;5.57;;;4.73;;
1775;SDS011;885;42.626;23.200;2022-09-24T03:54:45;5.60;;;5.13;;
1775;SDS011;885;42.626;23.200;2022-09-24T03:57:12;5.80;;;5.30;;
1775;SDS011;885;42.626;23.200;2022-09-24T03:59:39;6.20;;;5.60;;
1775;SDS011;885;42.626;23.200;2022-09-24T04:02:06;5.70;;;5.00;;
1775;SDS011;885;42.626;23.200;2022-09-24T04:04:33;5.20;;;4.63;;
1775;SDS011;885;42.626;23.200;2022-09-24T04:07:00;6.33;;;5.80;;
1775;SDS011;885;42.626;23.200;2022-09-24T04:09:28;6.03;;;5.43;;
1775;SDS011;885;42.626;23.200;2022-09-24T04:11:55;6.80;;;5.10;;
1775;SDS011;885;42.626;23.200;2022-09-24T04:14:23;5.53;;;5.07;;
1775;SDS011;885;42.626;23.200;2022-09-24T04:16:50;5.20;;;4.80;;
1775;SDS011;885;42.626;23.200;2022-09-24T04:19:17;5.30;;;4.77;;
1775;SDS011;885;42.626;23.200;2022-09-24T04:21:44;4.87;;;4.47;;
1775;SDS011;885;42.626;23.200;2022-09-24T04:24:11;7.13;;;5.77;;
1775;SDS011;885;42.626;23.200;2022-09-24T04:26:39;5.57;;;5.03;;
1775;SDS011;885;42.626;23.200;2022-09-24T04:29:06;6.07;;;5.57;;
1775;SDS011;885;42.626;23.200;2022-09-24T04:31:33;5.00;;;4.60;;
1775;SDS011;885;42.626;23.200;2022-09-24T04:34:00;6.10;;;5.50;;
1775;SDS011;885;42.626;23.200;2022-09-24T04:36:27;5.10;;;4.70;;
1775;SDS011;885;42.626;23.200;2022-09-24T04:38:53;5.50;;;5.10;;
1775;SDS011;885;42.626;23.200;2022-09-24T04:41:21;5.50;;;5.00;;
1775;SDS011;885;42.626;23.200;2022-09-24T04:43:49;5.77;;;5.27;;
1775;SDS011;885;42.626;23.200;2022-09-24T04:46:16;5.53;;;5.00;;
1775;SDS011;885;42.626;23.200;2022-09-24T04:48:44;5.80;;;5.23;;
1775;SDS011;885;42.626;23.200;2022-09-24T04:51:10;5.90;;;5.30;;
1775;SDS011;885;42.626;23.200;2022-09-24T04:53:37;6.03;;;5.47;;
1775;SDS011;885;42.626;23.200;2022-09-24T04:56:05;6.00;;;5.40;;
1775;SDS011;885;42.626;23.200;2022-09-24T04:58:35;7.00;;;6.00;;
1775;SDS011;885;42.626;23.200;2022-09-24T05:01:03;5.97;;;5.37;;
1775;SDS011;885;42.626;23.200;2022-09-24T05:03:31;5.57;;;5.07;;
1775;SDS011;885;42.626;23.200;2022-09-24T05:05:58;4.70;;;4.30;;
1775;SDS011;885;42.626;23.200;2022-09-24T05:08:26;5.63;;;5.07;;
1775;SDS011;885;42.626;23.200;2022-09-24T05:10:53;5.40;;;4.90;;
1775;SDS011;885;42.626;23.200;2022-09-24T05:13:19;6.30;;;5.23;;
1775;SDS011;885;42.626;23.200;2022-09-24T05:15:46;6.50;;;5.57;;
1775;SDS011;885;42.626;23.200;2022-09-24T05:18:15;7.30;;;5.43;;
1775;SDS011;885;42.626;23.200;2022-09-24T05:20:41;5.37;;;4.90;;
1775;SDS011;885;42.626;23.200;2022-09-24T05:23:08;7.07;;;6.47;;
1775;SDS011;885;42.626;23.200;2022-09-24T05:25:35;8.20;;;5.83;;
1775;SDS011;885;42.626;23.200;2022-09-24T05:28:22;5.80;;;5.27;;
1775;SDS011;885;42.626;23.200;2022-09-24T05:30:48;5.53;;;5.00;;
1775;SDS011;885;42.626;23.200;2022-09-24T05:33:16;5.20;;;4.80;;
1775;SDS011;885;42.626;23.200;2022-09-24T05:35:43;6.23;;;5.63;;
1775;SDS011;885;42.626;23.200;2022-09-24T05:38:09;6.13;;;5.53;;
1775;SDS011;885;42.626;23.200;2022-09-24T05:40:36;6.10;;;5.60;;
1775;SDS011;885;42.626;23.200;2022-09-24T05:43:23;6.83;;;5.83;;
1775;SDS011;885;42.626;23.200;2022-09-24T05:45:51;7.50;;;6.47;;
1775;SDS011;885;42.626;23.200;2022-09-24T05:48:20;10.17;;;6.27;;
1775;SDS011;885;42.626;23.200;2022-09-24T05:50:49;10.00;;;7.20;;
1775;SDS011;885;42.626;23.200;2022-09-24T05:53:16;9.03;;;7.20;;
1775;SDS011;885;42.626;23.200;2022-09-24T05:55:42;9.27;;;7.70;;
1775;SDS011;885;42.626;23.200;2022-09-24T05:58:09;10.17;;;7.23;;
1775;SDS011;885;42.626;23.200;2022-09-24T06:00:36;7.80;;;6.93;;
1775;SDS011;885;42.626;23.200;2022-09-24T06:03:03;9.60;;;7.00;;
1775;SDS011;885;42.626;23.200;2022-09-24T06:05:33;8.80;;;7.17;;
1775;SDS011;885;42.626;23.200;2022-09-24T06:08:00;9.83;;;7.13;;
1775;SDS011;885;42.626;23.200;2022-09-24T06:10:27;12.00;;;8.13;;
1775;SDS011;885;42.626;23.200;2022-09-24T06:12:54;7.83;;;7.00;;
1775;SDS011;885;42.626;23.200;2022-09-24T06:15:21;12.30;;;8.30;;
1775;SDS011;885;42.626;23.200;2022-09-24T06:17:48;11.63;;;7.60;;
1775;SDS011;885;42.626;23.200;2022-09-24T06:20:17;9.77;;;7.80;;
1775;SDS011;885;42.626;23.200;2022-09-24T06:22:46;10.57;;;8.23;;
1775;SDS011;885;42.626;23.200;2022-09-24T06:25:13;11.43;;;8.17;;
1775;SDS011;885;42.626;23.200;2022-09-24T06:27:39;11.33;;;8.70;;
1775;SDS011;885;42.626;23.200;2022-09-24T06:30:07;11.13;;;8.43;;
1775;SDS011;885;42.626;23.200;2022-09-24T06:32:34;11.00;;;7.73;;
1775;SDS011;885;42.626;23.200;2022-09-24T06:35:03;14.47;;;9.67;;
1775;SDS011;885;42.626;23.200;2022-09-24T06:37:30;11.17;;;8.17;;
1775;SDS011;885;42.626;23.200;2022-09-24T06:39:59;11.03;;;9.03;;
1775;SDS011;885;42.626;23.200;2022-09-24T06:42:26;12.00;;;9.10;;
1775;SDS011;885;42.626;23.200;2022-09-24T06:44:53;11.63;;;8.17;;
1775;SDS011;885;42.626;23.200;2022-09-24T06:47:20;14.00;;;9.33;;
1775;SDS011;885;42.626;23.200;2022-09-24T06:49:48;14.33;;;9.67;;
1775;SDS011;885;42.626;23.200;2022-09-24T06:52:15;13.00;;;9.57;;
1775;SDS011;885;42.626;23.200;2022-09-24T06:54:41;12.23;;;9.27;;
1775;SDS011;885;42.626;23.200;2022-09-24T06:57:10;12.70;;;10.10;;
1775;SDS011;885;42.626;23.200;2022-09-24T06:59:36;15.10;;;10.37;;
1775;SDS011;885;42.626;23.200;2022-09-24T07:02:03;16.00;;;9.87;;
1775;SDS011;885;42.626;23.200;2022-09-24T07:04:30;15.27;;;11.17;;
1775;SDS011;885;42.626;23.200;2022-09-24T07:06:57;16.83;;;10.93;;
1775;SDS011;885;42.626;23.200;2022-09-24T07:09:41;18.67;;;10.10;;
1775;SDS011;885;42.626;23.200;2022-09-24T07:12:07;19.23;;;10.07;;
1775;SDS011;885;42.626;23.200;2022-09-24T07:14:36;15.17;;;9.93;;
1775;SDS011;885;42.626;23.200;2022-09-24T07:17:02;8.87;;;6.27;;
1775;SDS011;885;42.626;23.200;2022-09-24T07:19:29;4.57;;;4.17;;
1775;SDS011;885;42.626;23.200;2022-09-24T07:21:56;3.60;;;3.30;;
1775;SDS011;885;42.626;23.200;2022-09-24T07:24:23;4.53;;;3.67;;
1775;SDS011;885;42.626;23.200;2022-09-24T07:26:49;5.90;;;4.37;;
1775;SDS011;885;42.626;23.200;2022-09-24T07:29:18;6.37;;;5.27;;
1775;SDS011;885;42.626;23.200;2022-09-24T07:31:44;5.13;;;4.57;;
1775;SDS011;885;42.626;23.200;2022-09-24T07:34:11;4.23;;;3.93;;
1775;SDS011;885;42.626;23.200;2022-09-24T07:36:39;4.10;;;3.70;;
1775;SDS011;885;42.626;23.200;2022-09-24T07:39:05;4.07;;;3.67;;
1775;SDS011;885;42.626;23.200;2022-09-24T07:41:32;4.30;;;3.90;;
1775;SDS011;885;42.626;23.200;2022-09-24T07:43:59;4.40;;;4.00;;
1775;SDS011;885;42.626;23.200;2022-09-24T07:46:27;4.00;;;3.60;;
1775;SDS011;885;42.626;23.200;2022-09-24T07:48:54;4.03;;;3.60;;
1775;SDS011;885;42.626;23.200;2022-09-24T07:51:21;3.23;;;2.97;;
1775;SDS011;885;42.626;23.200;2022-09-24T07:53:48;2.97;;;2.77;;
1775;SDS011;885;42.626;23.200;2022-09-24T07:56:15;3.43;;;3.17;;
1775;SDS011;885;42.626;23.200;2022-09-24T07:58:41;3.93;;;3.63;;
1775;SDS011;885;42.626;23.200;2022-09-24T08:01:08;3.87;;;3.57;;
1775;SDS011;885;42.626;23.200;2022-09-24T08:03:37;2.93;;;2.73;;
1775;SDS011;885;42.626;23.200;2022-09-24T08:06:04;3.43;;;3.10;;
1775;SDS011;885;42.626;23.200;2022-09-24T08:08:31;3.53;;;2.97;;
1775;SDS011;885;42.626;23.200;2022-09-24T08:11:01;3.00;;;2.80;;
1775;SDS011;885;42.626;23.200;2022-09-24T08:13:29;3.83;;;3.50;;
1775;SDS011;885;42.626;23.200;2022-09-24T08:15:56;4.07;;;3.30;;
1775;SDS011;885;42.626;23.200;2022-09-24T08:18:24;4.17;;;3.77;;
1775;SDS011;885;42.626;23.200;2022-09-24T08:20:52;3.40;;;3.10;;
1775;SDS011;885;42.626;23.200;2022-09-24T08:23:19;3.40;;;3.10;;
1775;SDS011;885;42.626;23.200;2022-09-24T08:25:46;3.30;;;3.10;;
1775;SDS011;885;42.626;23.200;2022-09-24T08:28:13;3.50;;;3.20;;
1775;SDS011;885;42.626;23.200;2022-09-24T08:30:41;3.30;;;3.00;;
1775;SDS011;885;42.626;23.200;2022-09-24T08:33:08;3.70;;;3.40;;
1775;SDS011;885;42.626;23.200;2022-09-24T08:35:35;3.13;;;2.83;;
1775;SDS011;885;42.626;23.200;2022-09-24T08:38:05;3.70;;;3.40;;
1775;SDS011;885;42.626;23.200;2022-09-24T08:40:35;3.50;;;3.20;;
1775;SDS011;885;42.626;23.200;2022-09-24T08:43:05;3.40;;;3.00;;
1775;SDS011;885;42.626;23.200;2022-09-24T08:45:45;3.40;;;3.10;;
1775;SDS011;885;42.626;23.200;2022-09-24T08:48:35;3.37;;;2.67;;
1775;SDS011;885;42.626;23.200;2022-09-24T08:51:10;3.43;;;3.13;;
1775;SDS011;885;42.626;23.200;2022-09-24T08:53:45;3.27;;;2.97;;
1775;SDS011;885;42.626;23.200;2022-09-24T08:56:17;3.00;;;2.80;;
1775;SDS011;885;42.626;23.200;2022-09-24T08:58:49;3.13;;;2.83;;
1775;SDS011;885;42.626;23.200;2022-09-24T09:01:24;3.63;;;3.33;;
1775;SDS011;885;42.626;23.200;2022-09-24T09:03:59;3.60;;;3.30;;
1775;SDS011;885;42.626;23.200;2022-09-24T09:06:35;3.37;;;3.00;;
1775;SDS011;885;42.626;23.200;2022-09-24T09:09:14;3.00;;;2.80;;
1775;SDS011;885;42.626;23.200;2022-09-24T09:11:46;3.20;;;2.90;;
1775;SDS011;885;42.626;23.200;2022-09-24T09:14:15;6.57;;;4.60;;
1775;SDS011;885;42.626;23.200;2022-09-24T09:16:48;4.80;;;4.10;;
1775;SDS011;885;42.626;23.200;2022-09-24T09:19:17;5.60;;;5.10;;
1775;SDS011;885;42.626;23.200;2022-09-24T09:21:49;2.90;;;2.70;;
1775;SDS011;885;42.626;23.200;2022-09-24T09:24:24;5.37;;;3.63;;
1775;SDS011;885;42.626;23.200;2022-09-24T09:26:58;4.03;;;2.97;;
1775;SDS011;885;42.626;23.200;2022-09-24T09:29:25;4.13;;;3.63;;
1775;SDS011;885;42.626;23.200;2022-09-24T09:31:55;4.20;;;3.20;;
1775;SDS011;885;42.626;23.200;2022-09-24T09:34:36;3.47;;;3.20;;
1775;SDS011;885;42.626;23.200;2022-09-24T09:37:13;2.93;;;2.73;;
1775;SDS011;885;42.626;23.200;2022-09-24T09:39:52;3.27;;;3.07;;
1775;SDS011;885;42.626;23.200;2022-09-24T09:42:28;3.73;;;2.80;;
1775;SDS011;885;42.626;23.200;2022-09-24T09:44:58;3.37;;;2.60;;
1775;SDS011;885;42.626;23.200;2022-09-24T09:47:33;3.93;;;3.63;;
1775;SDS011;885;42.626;23.200;2022-09-24T09:50:09;3.47;;;3.17;;
1775;SDS011;885;42.626;23.200;2022-09-24T09:52:43;3.57;;;3.27;;
1775;SDS011;885;42.626;23.200;2022-09-24T09:55:20;4.73;;;3.20;;
1775;SDS011;885;42.626;23.200;2022-09-24T09:57:49;4.17;;;3.13;;
1775;SDS011;885;42.626;23.200;2022-09-24T10:00:23;3.93;;;2.93;;
1775;SDS011;885;42.626;23.200;2022-09-24T10:02:51;4.60;;;3.00;;
1775;SDS011;885;42.626;23.200;2022-09-24T10:05:19;3.97;;;3.00;;
1775;SDS011;885;42.626;23.200;2022-09-24T10:07:52;3.63;;;3.20;;
1775;SDS011;885;42.626;23.200;2022-09-24T10:10:21;4.20;;;3.63;;
1775;SDS011;885;42.626;23.200;2022-09-24T10:12:52;3.60;;;3.30;;
1775;SDS011;885;42.626;23.200;2022-09-24T10:15:20;4.43;;;4.03;;
1775;SDS011;885;42.626;23.200;2022-09-24T10:17:50;4.40;;;3.60;;
1775;SDS011;885;42.626;23.200;2022-09-24T10:20:20;3.20;;;2.90;;
1775;SDS011;885;42.626;23.200;2022-09-24T10:22:50;6.83;;;3.83;;
1775;SDS011;885;42.626;23.200;2022-09-24T10:25:19;4.03;;;3.10;;
1775;SDS011;885;42.626;23.200;2022-09-24T10:27:50;3.70;;;3.40;;
1775;SDS011;885;42.626;23.200;2022-09-24T10:30:19;3.57;;;3.20;;
1775;SDS011;885;42.626;23.200;2022-09-24T10:32:57;3.30;;;3.00;;
1775;SDS011;885;42.626;23.200;2022-09-24T10:35:27;5.73;;;4.03;;
1775;SDS011;885;42.626;23.200;2022-09-24T10:37:56;3.60;;;2.57;;
1775;SDS011;885;42.626;23.200;2022-09-24T10:40:26;5.13;;;2.90;;
1775;SDS011;885;42.626;23.200;2022-09-24T10:42:57;3.53;;;2.90;;
1775;SDS011;885;42.626;23.200;2022-09-24T10:48:57;2.90;;;2.70;;
1775;SDS011;885;42.626;23.200;2022-09-24T10:51:33;3.47;;;2.83;;
1775;SDS011;885;42.626;23.200;2022-09-24T10:54:10;3.90;;;3.10;;
1775;SDS011;885;42.626;23.200;2022-09-24T10:56:52;4.60;;;4.20;;
1775;SDS011;885;42.626;23.200;2022-09-24T11:02:23;3.23;;;3.03;;
1775;SDS011;885;42.626;23.200;2022-09-24T11:05:07;3.80;;;3.10;;
1775;SDS011;885;42.626;23.200;2022-09-24T11:07:48;4.97;;;3.70;;
1775;SDS011;885;42.626;23.200;2022-09-24T11:10:28;3.50;;;3.20;;
1775;SDS011;885;42.626;23.200;2022-09-24T11:13:12;3.60;;;3.07;;
1775;SDS011;885;42.626;23.200;2022-09-24T11:18:41;3.50;;;2.80;;
1775;SDS011;885;42.626;23.200;2022-09-24T11:21:18;3.43;;;3.13;;
1775;SDS011;885;42.626;23.200;2022-09-24T11:23:58;3.17;;;2.90;;
1775;SDS011;885;42.626;23.200;2022-09-24T11:26:53;2.67;;;2.43;;
1775;SDS011;885;42.626;23.200;2022-09-24T11:32:28;3.03;;;2.73;;
1775;SDS011;885;42.626;23.200;2022-09-24T11:35:05;3.33;;;3.03;;
1775;SDS011;885;42.626;23.200;2022-09-24T11:37:51;3.30;;;3.00;;
1775;SDS011;885;42.626;23.200;2022-09-24T11:43:42;3.13;;;2.80;;
1775;SDS011;885;42.626;23.200;2022-09-24T11:46:33;3.10;;;2.63;;
1775;SDS011;885;42.626;23.200;2022-09-24T11:49:22;2.70;;;2.50;;
1775;SDS011;885;42.626;23.200;2022-09-24T11:52:04;3.27;;;2.97;;
1775;SDS011;885;42.626;23.200;2022-09-24T11:54:38;3.47;;;3.17;;
1775;SDS011;885;42.626;23.200;2022-09-24T11:57:13;3.93;;;3.63;;
1775;SDS011;885;42.626;23.200;2022-09-24T11:59:47;6.37;;;3.57;;
1775;SDS011;885;42.626;23.200;2022-09-24T12:02:21;3.30;;;3.00;;
1775;SDS011;885;42.626;23.200;2022-09-24T12:04:53;3.50;;;3.20;;
1775;SDS011;885;42.626;23.200;2022-09-24T12:07:27;4.90;;;3.20;;
1775;SDS011;885;42.626;23.200;2022-09-24T12:09:59;3.27;;;2.97;;
1775;SDS011;885;42.626;23.200;2022-09-24T12:12:32;3.20;;;2.93;;
1775;SDS011;885;42.626;23.200;2022-09-24T12:15:04;3.00;;;2.80;;
1775;SDS011;885;42.626;23.200;2022-09-24T12:17:40;6.43;;;3.70;;
1775;SDS011;885;42.626;23.200;2022-09-24T12:20:13;5.70;;;4.57;;
1775;SDS011;885;42.626;23.200;2022-09-24T12:22:44;6.10;;;4.00;;
1775;SDS011;885;42.626;23.200;2022-09-24T12:25:14;3.70;;;3.40;;
1775;SDS011;885;42.626;23.200;2022-09-24T12:27:41;3.03;;;2.80;;
1775;SDS011;885;42.626;23.200;2022-09-24T12:33:21;4.03;;;3.73;;
1775;SDS011;885;42.626;23.200;2022-09-24T12:35:57;4.20;;;3.90;;
1775;SDS011;885;42.626;23.200;2022-09-24T12:38:31;4.90;;;3.53;;
1775;SDS011;885;42.626;23.200;2022-09-24T12:43:52;4.80;;;3.80;;
1775;SDS011;885;42.626;23.200;2022-09-24T12:46:24;3.40;;;2.87;;
1775;SDS011;885;42.626;23.200;2022-09-24T12:48:55;3.20;;;2.70;;
1775;SDS011;885;42.626;23.200;2022-09-24T12:51:22;4.33;;;2.50;;
1775;SDS011;885;42.626;23.200;2022-09-24T12:53:57;2.87;;;2.57;;
1775;SDS011;885;42.626;23.200;2022-09-24T12:56:26;5.50;;;3.47;;
1775;SDS011;885;42.626;23.200;2022-09-24T12:58:57;3.47;;;3.17;;
1775;SDS011;885;42.626;23.200;2022-09-24T13:01:28;3.33;;;3.03;;
1775;SDS011;885;42.626;23.200;2022-09-24T13:04:03;3.30;;;3.10;;
1775;SDS011;885;42.626;23.200;2022-09-24T13:06:50;3.37;;;2.90;;
1775;SDS011;885;42.626;23.200;2022-09-24T13:09:22;2.53;;;2.33;;
1775;SDS011;885;42.626;23.200;2022-09-24T13:12:00;2.80;;;2.60;;
1775;SDS011;885;42.626;23.200;2022-09-24T13:14:29;2.90;;;2.70;;
1775;SDS011;885;42.626;23.200;2022-09-24T13:16:57;2.73;;;2.53;;
1775;SDS011;885;42.626;23.200;2022-09-24T13:19:29;2.90;;;2.60;;
1775;SDS011;885;42.626;23.200;2022-09-24T13:22:00;2.73;;;2.53;;
1775;SDS011;885;42.626;23.200;2022-09-24T13:24:29;2.67;;;2.47;;
1775;SDS011;885;42.626;23.200;2022-09-24T13:27:08;3.20;;;2.90;;
1775;SDS011;885;42.626;23.200;2022-09-24T13:29:45;2.57;;;2.37;;
1775;SDS011;885;42.626;23.200;2022-09-24T13:32:14;2.53;;;2.33;;
1775;SDS011;885;42.626;23.200;2022-09-24T13:34:46;3.03;;;2.73;;
1775;SDS011;885;42.626;23.200;2022-09-24T13:37:17;3.57;;;2.80;;
1775;SDS011;885;42.626;23.200;2022-09-24T13:39:50;2.80;;;2.20;;
1775;SDS011;885;42.626;23.200;2022-09-24T13:42:23;3.77;;;2.93;;
1775;SDS011;885;42.626;23.200;2022-09-24T13:44:57;2.90;;;2.70;;
1775;SDS011;885;42.626;23.200;2022-09-24T13:47:27;3.00;;;2.73;;
1775;SDS011;885;42.626;23.200;2022-09-24T13:50:02;2.80;;;2.60;;
1775;SDS011;885;42.626;23.200;2022-09-24T13:52:34;2.90;;;2.70;;
1775;SDS011;885;42.626;23.200;2022-09-24T13:55:05;5.20;;;2.60;;
1775;SDS011;885;42.626;23.200;2022-09-24T13:57:41;3.17;;;2.97;;
1775;SDS011;885;42.626;23.200;2022-09-24T14:00:12;3.07;;;2.87;;
1775;SDS011;885;42.626;23.200;2022-09-24T14:02:45;2.60;;;2.40;;
1775;SDS011;885;42.626;23.200;2022-09-24T14:05:20;3.83;;;3.50;;
1775;SDS011;885;42.626;23.200;2022-09-24T14:07:52;3.13;;;2.60;;
1775;SDS011;885;42.626;23.200;2022-09-24T14:10:21;3.13;;;2.50;;
1775;SDS011;885;42.626;23.200;2022-09-24T14:12:57;3.00;;;2.67;;
1775;SDS011;885;42.626;23.200;2022-09-24T14:15:29;3.43;;;3.13;;
1775;SDS011;885;42.626;23.200;2022-09-24T14:17:56;11.53;;;3.67;;
1775;SDS011;885;42.626;23.200;2022-09-24T14:20:26;4.33;;;3.77;;
1775;SDS011;885;42.626;23.200;2022-09-24T14:22:56;6.80;;;5.20;;
1775;SDS011;885;42.626;23.200;2022-09-24T14:25:25;3.30;;;3.00;;
1775;SDS011;885;42.626;23.200;2022-09-24T14:27:53;3.07;;;2.77;;
1775;SDS011;885;42.626;23.200;2022-09-24T14:30:23;3.77;;;3.00;;
1775;SDS011;885;42.626;23.200;2022-09-24T14:32:52;3.80;;;2.93;;
1775;SDS011;885;42.626;23.200;2022-09-24T14:35:24;4.00;;;2.83;;
1775;SDS011;885;42.626;23.200;2022-09-24T14:37:57;3.83;;;3.47;;
1775;SDS011;885;42.626;23.200;2022-09-24T14:40:35;3.47;;;3.17;;
1775;SDS011;885;42.626;23.200;2022-09-24T14:43:09;3.50;;;3.20;;
1775;SDS011;885;42.626;23.200;2022-09-24T14:45:41;3.23;;;2.93;;
1775;SDS011;885;42.626;23.200;2022-09-24T14:48:16;3.20;;;2.67;;
1775;SDS011;885;42.626;23.200;2022-09-24T14:50:46;2.83;;;2.63;;
1775;SDS011;885;42.626;23.200;2022-09-24T14:53:16;3.33;;;3.00;;
1775;SDS011;885;42.626;23.200;2022-09-24T14:55:47;3.50;;;3.07;;
1775;SDS011;885;42.626;23.200;2022-09-24T14:58:33;4.47;;;3.10;;
1775;SDS011;885;42.626;23.200;2022-09-24T15:01:05;11.10;;;6.83;;
1775;SDS011;885;42.626;23.200;2022-09-24T15:03:39;10.40;;;5.97;;
1775;SDS011;885;42.626;23.200;2022-09-24T15:08:57;4.80;;;4.27;;
1775;SDS011;885;42.626;23.200;2022-09-24T15:11:26;5.07;;;4.53;;
1775;SDS011;885;42.626;23.200;2022-09-24T15:13:59;5.33;;;3.87;;
1775;SDS011;885;42.626;23.200;2022-09-24T15:16:30;5.67;;;4.90;;
1775;SDS011;885;42.626;23.200;2022-09-24T15:19:00;4.57;;;3.70;;
1775;SDS011;885;42.626;23.200;2022-09-24T15:21:40;8.37;;;7.07;;
1775;SDS011;885;42.626;23.200;2022-09-24T15:24:07;6.67;;;6.07;;
1775;SDS011;885;42.626;23.200;2022-09-24T15:26:35;4.40;;;3.97;;
1775;SDS011;885;42.626;23.200;2022-09-24T15:29:04;4.90;;;4.50;;
1775;SDS011;885;42.626;23.200;2022-09-24T15:31:32;4.93;;;4.40;;
1775;SDS011;885;42.626;23.200;2022-09-24T15:33:59;9.30;;;6.40;;
1775;SDS011;885;42.626;23.200;2022-09-24T15:36:25;5.20;;;4.80;;
1775;SDS011;885;42.626;23.200;2022-09-24T15:38:58;5.20;;;4.10;;
1775;SDS011;885;42.626;23.200;2022-09-24T15:41:27;4.27;;;3.87;;
1775;SDS011;885;42.626;23.200;2022-09-24T15:43:55;3.83;;;3.40;;
1775;SDS011;885;42.626;23.200;2022-09-24T15:46:23;3.37;;;3.07;;
1775;SDS011;885;42.626;23.200;2022-09-24T15:48:50;2.70;;;2.50;;
1775;SDS011;885;42.626;23.200;2022-09-24T15:51:18;3.80;;;3.50;;
1775;SDS011;885;42.626;23.200;2022-09-24T15:53:47;3.97;;;3.67;;
1775;SDS011;885;42.626;23.200;2022-09-24T15:56:16;3.50;;;3.20;;
1775;SDS011;885;42.626;23.200;2022-09-24T15:58:43;6.47;;;3.90;;
1775;SDS011;885;42.626;23.200;2022-09-24T16:01:12;3.37;;;3.07;;